Time,TemperatureF,DewpointF,PressureIn,WindDirection,WindDirectionDegrees,WindSpeedMPH,WindSpeedGustMPH,Humidity,HourlyPrecipIn,Conditions,Clouds,dailyrainin,SoftwareType,DateUTC
2013-08-21 00:00:00,68.0,67.1,30.14,East,99,0.0,0.0,97,0.00,,---,0.00,VWS V14.01,2013-08-21 04:00:00,
2013-08-21 00:01:00,67.9,67.0,30.14,East,99,0.0,0.0,97,0.00,,---,0.00,VWS V14.01,2013-08-21 04:01:00,
2013-08-21 00:02:00,67.9,67.0,30.14,East,98,0.0,0.0,97,0.00,,---,0.00,VWS V14.01,2013-08-21 04:02:00,
2013-08-21 00:07:00,67.7,66.8,30.14,East,98,0.0,0.0,97,0.00,,---,0.00,VWS V14.01,2013-08-21 04:07:00,
2013-08-21 00:10:00,67.6,66.7,30.14,East,98,0.0,0.0,97,0.00,,---,0.00,VWS V14.01,2013-08-21 04:10:00,
2013-08-21 00:12:00,67.6,67.0,30.14,East,98,0.0,0.0,98,0.00,,---,0.00,VWS V14.01,2013-08-21 04:12:00,
2013-08-21 00:17:00,67.5,66.6,30.14,East,99,0.0,0.0,97,0.00,,---,0.00,VWS V14.01,2013-08-21 04:17:00,
2013-08-21 00:20:00,67.4,66.5,30.14,East,98,0.0,0.0,97,0.00,,---,0.00,VWS V14.01,2013-08-21 04:20:00,
2013-08-21 00:22:00,67.3,66.4,30.14,East,98,0.0,0.0,97,0.00,,---,0.00,VWS V14.01,2013-08-21 04:22:00,
2013-08-21 00:27:00,67.7,67.1,30.14,East,98,0.0,0.0,98,0.00,,---,0.00,VWS V14.01,2013-08-21 04:27:00,
2013-08-21 00:30:00,67.7,67.1,30.14,East,99,0.0,0.0,98,0.00,,---,0.00,VWS V14.01,2013-08-21 04:30:00,
2013-08-21 00:32:00,67.7,67.1,30.14,East,98,0.0,0.0,98,0.00,,---,0.00,VWS V14.01,2013-08-21 04:32:00,
2013-08-21 00:37:00,67.7,67.1,30.14,East,98,0.0,0.0,98,0.00,,---,0.00,VWS V14.01,2013-08-21 04:37:00,
2013-08-21 00:40:00,67.7,67.1,30.14,East,98,0.0,0.0,98,0.00,,---,0.00,VWS V14.01,2013-08-21 04:40:00,
2013-08-21 00:42:00,67.7,67.1,30.14,East,99,0.0,0.0,98,0.00,,---,0.00,VWS V14.01,2013-08-21 04:42:00,
2013-08-21 00:47:00,67.6,67.0,30.14,East,98,0.0,0.0,98,0.00,,---,0.00,VWS V14.01,2013-08-21 04:47:00,
2013-08-21 00:50:00,67.5,66.9,30.14,East,99,0.0,0.0,98,0.00,,---,0.00,VWS V14.01,2013-08-21 04:50:00,
2013-08-21 00:52:00,67.4,66.8,30.14,East,98,0.0,0.0,98,0.00,,---,0.00,VWS V14.01,2013-08-21 04:52:00,
2013-08-21 00:57:00,67.3,66.7,30.14,East,98,0.0,0.0,98,0.00,,---,0.00,VWS V14.01,2013-08-21 04:57:00,
2013-08-21 01:00:00,67.2,66.6,30.15,East,98,0.0,0.0,98,0.00,,---,0.00,VWS V14.01,2013-08-21 05:00:00,
2013-08-21 01:02:00,67.3,66.7,30.14,East,98,0.0,0.0,98,0.00,,---,0.00,VWS V14.01,2013-08-21 05:02:00,
2013-08-21 01:07:00,67.5,66.9,30.14,East,98,0.0,0.0,98,0.00,,---,0.00,VWS V14.01,2013-08-21 05:07:00,
2013-08-21 01:10:00,67.6,67.0,30.14,East,99,0.0,0.0,98,0.00,,---,0.00,VWS V14.01,2013-08-21 05:10:00,
2013-08-21 01:12:00,67.7,67.1,30.14,East,98,0.0,0.0,98,0.00,,---,0.00,VWS V14.01,2013-08-21 05:12:00,
2013-08-21 01:17:00,67.7,67.1,30.15,East,98,0.0,0.0,98,0.00,,---,0.00,VWS V14.01,2013-08-21 05:17:00,
2013-08-21 01:20:00,67.6,67.0,30.14,East,98,0.0,0.0,98,0.00,,---,0.00,VWS V14.01,2013-08-21 05:20:00,
2013-08-21 01:22:00,67.6,67.0,30.15,East,99,0.0,0.0,98,0.00,,---,0.00,VWS V14.01,2013-08-21 05:22:00,
2013-08-21 01:27:00,67.5,66.9,30.14,East,99,0.0,0.0,98,0.00,,---,0.00,VWS V14.01,2013-08-21 05:27:00,
2013-08-21 01:30:00,67.5,66.9,30.14,East,98,0.0,0.0,98,0.00,,---,0.00,VWS V14.01,2013-08-21 05:30:00,
2013-08-21 01:32:00,67.4,66.8,30.14,East,99,0.0,0.0,98,0.00,,---,0.00,VWS V14.01,2013-08-21 05:32:00,
2013-08-21 01:37:00,67.2,66.6,30.14,East,98,0.0,0.0,98,0.00,,---,0.00,VWS V14.01,2013-08-21 05:37:00,
2013-08-21 01:40:00,67.1,66.5,30.14,East,99,0.0,0.0,98,0.00,,---,0.00,VWS V14.01,2013-08-21 05:40:00,
2013-08-21 01:42:00,66.9,66.3,30.14,East,99,0.0,0.0,98,0.00,,---,0.00,VWS V14.01,2013-08-21 05:42:00,
2013-08-21 01:47:00,66.9,66.3,30.15,East,98,0.0,0.0,98,0.00,,---,0.00,VWS V14.01,2013-08-21 05:47:00,
2013-08-21 01:50:00,66.9,66.3,30.14,East,99,0.0,0.0,98,0.00,,---,0.00,VWS V14.01,2013-08-21 05:50:00,
2013-08-21 01:52:00,66.8,66.2,30.14,East,99,0.0,0.0,98,0.00,,---,0.00,VWS V14.01,2013-08-21 05:52:00,
2013-08-21 01:57:00,66.9,66.3,30.14,East,98,0.0,0.0,98,0.00,,---,0.00,VWS V14.01,2013-08-21 05:57:00,
2013-08-21 02:00:00,66.9,66.3,30.14,East,98,0.0,0.0,98,0.00,,---,0.00,VWS V14.01,2013-08-21 06:00:00,
2013-08-21 02:02:00,66.9,66.3,30.14,East,98,0.0,0.0,98,0.00,,---,0.00,VWS V14.01,2013-08-21 06:02:00,
2013-08-21 02:07:00,66.9,66.3,30.14,East,98,0.0,0.0,98,0.00,,---,0.00,VWS V14.01,2013-08-21 06:07:00,
2013-08-21 02:10:00,66.9,66.3,30.14,East,99,0.0,0.0,98,0.00,,---,0.00,VWS V14.01,2013-08-21 06:10:00,
2013-08-21 02:12:00,66.8,66.2,30.14,East,99,0.0,0.0,98,0.00,,---,0.00,VWS V14.01,2013-08-21 06:12:00,
2013-08-21 02:17:00,66.8,66.2,30.14,East,99,0.0,0.0,98,0.00,,---,0.00,VWS V14.01,2013-08-21 06:17:00,
2013-08-21 02:20:00,66.8,66.2,30.14,East,98,0.0,0.0,98,0.00,,---,0.00,VWS V14.01,2013-08-21 06:20:00,
2013-08-21 02:22:00,66.7,66.1,30.14,East,98,0.0,0.0,98,0.00,,---,0.00,VWS V14.01,2013-08-21 06:22:00,
2013-08-21 02:28:00,66.7,66.1,30.15,East,98,0.0,0.0,98,0.00,,---,0.00,VWS V14.01,2013-08-21 06:28:00,
2013-08-21 02:30:00,66.7,66.1,30.15,East,99,0.0,0.0,98,0.00,,---,0.00,VWS V14.01,2013-08-21 06:30:00,
2013-08-21 02:33:00,66.6,66.0,30.14,East,99,0.0,0.0,98,0.00,,---,0.00,VWS V14.01,2013-08-21 06:33:00,
2013-08-21 02:38:00,66.6,66.0,30.14,East,99,0.0,0.0,98,0.00,,---,0.00,VWS V14.01,2013-08-21 06:38:00,
2013-08-21 02:40:00,66.5,65.9,30.14,East,98,0.0,0.0,98,0.00,,---,0.00,VWS V14.01,2013-08-21 06:40:00,
2013-08-21 02:43:00,66.5,65.9,30.14,East,99,0.0,0.0,98,0.00,,---,0.00,VWS V14.01,2013-08-21 06:43:00,
2013-08-21 02:48:00,66.4,65.8,30.14,East,99,0.0,0.0,98,0.00,,---,0.00,VWS V14.01,2013-08-21 06:48:00,
2013-08-21 02:50:00,66.3,65.7,30.14,East,99,0.0,0.0,98,0.00,,---,0.00,VWS V14.01,2013-08-21 06:50:00,
2013-08-21 02:53:00,66.3,65.7,30.14,East,98,0.0,0.0,98,0.00,,---,0.00,VWS V14.01,2013-08-21 06:53:00,
2013-08-21 02:58:00,66.6,66.3,30.14,East,99,0.0,1.0,99,0.00,,---,0.00,VWS V14.01,2013-08-21 06:58:00,
2013-08-21 03:00:00,66.6,66.3,30.14,East,99,0.0,1.0,99,0.00,,---,0.00,VWS V14.01,2013-08-21 07:00:00,
2013-08-21 03:03:00,66.6,66.3,30.14,East,98,0.0,0.0,99,0.00,,---,0.00,VWS V14.01,2013-08-21 07:03:00,
2013-08-21 03:08:00,66.6,66.3,30.15,East,99,0.0,0.0,99,0.00,,---,0.00,VWS V14.01,2013-08-21 07:08:00,
2013-08-21 03:10:00,66.5,65.9,30.14,East,99,0.0,0.0,98,0.00,,---,0.00,VWS V14.01,2013-08-21 07:10:00,
2013-08-21 03:13:00,66.4,65.8,30.14,East,99,0.0,0.0,98,0.00,,---,0.00,VWS V14.01,2013-08-21 07:13:00,
2013-08-21 03:18:00,66.3,65.7,30.14,East,99,0.0,0.0,98,0.00,,---,0.00,VWS V14.01,2013-08-21 07:18:00,
2013-08-21 03:20:00,66.3,65.7,30.14,East,99,0.0,0.0,98,0.00,,---,0.00,VWS V14.01,2013-08-21 07:20:00,
2013-08-21 03:23:00,66.1,65.5,30.14,East,98,0.0,0.0,98,0.00,,---,0.00,VWS V14.01,2013-08-21 07:23:00,
2013-08-21 03:28:00,66.0,65.4,30.14,East,99,0.0,0.0,98,0.00,,---,0.00,VWS V14.01,2013-08-21 07:28:00,
2013-08-21 03:30:00,66.0,65.4,30.14,East,98,0.0,0.0,98,0.00,,---,0.00,VWS V14.01,2013-08-21 07:30:00,
2013-08-21 03:33:00,65.9,65.3,30.14,East,99,0.0,0.0,98,0.00,,---,0.00,VWS V14.01,2013-08-21 07:33:00,
2013-08-21 03:38:00,66.0,65.7,30.14,East,98,0.0,0.0,99,0.00,,---,0.00,VWS V14.01,2013-08-21 07:38:00,
2013-08-21 03:40:00,66.0,65.7,30.14,East,99,0.0,0.0,99,0.00,,---,0.00,VWS V14.01,2013-08-21 07:40:00,
2013-08-21 03:43:00,66.0,65.7,30.14,East,99,0.0,0.0,99,0.00,,---,0.00,VWS V14.01,2013-08-21 07:43:00,
2013-08-21 03:48:00,65.8,65.2,30.14,East,99,0.0,0.0,98,0.00,,---,0.00,VWS V14.01,2013-08-21 07:48:00,
2013-08-21 03:50:00,65.8,65.2,30.14,East,98,0.0,0.0,98,0.00,,---,0.00,VWS V14.01,2013-08-21 07:50:00,
2013-08-21 03:53:00,65.7,65.1,30.14,East,99,0.0,0.0,98,0.00,,---,0.00,VWS V14.01,2013-08-21 07:53:00,
2013-08-21 03:58:00,65.6,65.0,30.14,East,98,0.0,0.0,98,0.00,,---,0.00,VWS V14.01,2013-08-21 07:58:00,
2013-08-21 04:00:00,65.6,65.0,30.13,East,99,0.0,0.0,98,0.00,,---,0.00,VWS V14.01,2013-08-21 08:00:00,
2013-08-21 04:03:00,65.6,65.0,30.14,East,98,0.0,0.0,98,0.00,,---,0.00,VWS V14.01,2013-08-21 08:03:00,
2013-08-21 04:08:00,65.4,64.8,30.14,East,99,0.0,0.0,98,0.00,,---,0.00,VWS V14.01,2013-08-21 08:08:00,
2013-08-21 04:10:00,65.4,64.8,30.14,East,99,0.0,0.0,98,0.00,,---,0.00,VWS V14.01,2013-08-21 08:10:00,
2013-08-21 04:13:00,65.4,64.8,30.14,East,98,0.0,0.0,98,0.00,,---,0.00,VWS V14.01,2013-08-21 08:13:00,
2013-08-21 04:18:00,65.5,65.2,30.14,East,99,0.0,0.0,99,0.00,,---,0.00,VWS V14.01,2013-08-21 08:18:00,
2013-08-21 04:20:00,65.6,65.3,30.14,East,99,0.0,0.0,99,0.00,,---,0.00,VWS V14.01,2013-08-21 08:20:00,
2013-08-21 04:23:00,65.7,65.4,30.14,East,98,0.0,0.0,99,0.00,,---,0.00,VWS V14.01,2013-08-21 08:23:00,
2013-08-21 04:28:00,65.9,65.6,30.13,East,99,0.0,0.0,99,0.00,,---,0.00,VWS V14.01,2013-08-21 08:28:00,
2013-08-21 04:30:00,65.9,65.6,30.13,East,99,0.0,0.0,99,0.00,,---,0.00,VWS V14.01,2013-08-21 08:30:00,
2013-08-21 04:33:00,66.1,65.8,30.13,East,98,0.0,0.0,99,0.00,,---,0.00,VWS V14.01,2013-08-21 08:33:00,
2013-08-21 04:38:00,65.9,65.3,30.13,East,98,0.0,0.0,98,0.00,,---,0.00,VWS V14.01,2013-08-21 08:38:00,
2013-08-21 04:40:00,65.9,65.3,30.14,East,99,0.0,0.0,98,0.00,,---,0.00,VWS V14.01,2013-08-21 08:40:00,
2013-08-21 04:43:00,65.8,65.2,30.13,East,98,0.0,0.0,98,0.00,,---,0.00,VWS V14.01,2013-08-21 08:43:00,
2013-08-21 04:48:00,65.6,65.0,30.14,East,99,0.0,0.0,98,0.00,,---,0.00,VWS V14.01,2013-08-21 08:48:00,
2013-08-21 04:50:00,65.6,65.0,30.14,East,99,0.0,0.0,98,0.00,,---,0.00,VWS V14.01,2013-08-21 08:50:00,
2013-08-21 04:53:00,65.6,65.3,30.14,East,98,0.0,0.0,99,0.00,,---,0.00,VWS V14.01,2013-08-21 08:53:00,
2013-08-21 04:58:00,65.5,65.2,30.14,East,98,0.0,0.0,99,0.00,,---,0.00,VWS V14.01,2013-08-21 08:58:00,
2013-08-21 05:00:00,65.6,65.3,30.14,East,99,0.0,0.0,99,0.00,,---,0.00,VWS V14.01,2013-08-21 09:00:00,
2013-08-21 05:03:00,65.6,65.3,30.14,East,98,0.0,0.0,99,0.00,,---,0.00,VWS V14.01,2013-08-21 09:03:00,
2013-08-21 05:08:00,65.5,65.2,30.14,East,98,0.0,0.0,99,0.00,,---,0.00,VWS V14.01,2013-08-21 09:08:00,
2013-08-21 05:10:00,65.5,65.2,30.14,East,99,0.0,0.0,99,0.00,,---,0.00,VWS V14.01,2013-08-21 09:10:00,
2013-08-21 05:13:00,65.5,65.2,30.14,East,98,0.0,0.0,99,0.00,,---,0.00,VWS V14.01,2013-08-21 09:13:00,
2013-08-21 05:18:00,65.4,65.1,30.14,East,98,0.0,0.0,99,0.00,,---,0.00,VWS V14.01,2013-08-21 09:18:00,
2013-08-21 05:20:00,65.4,65.1,30.14,East,99,0.0,0.0,99,0.00,,---,0.00,VWS V14.01,2013-08-21 09:20:00,
2013-08-21 05:23:00,65.4,65.1,30.14,East,99,0.0,0.0,99,0.00,,---,0.00,VWS V14.01,2013-08-21 09:23:00,
2013-08-21 05:28:00,65.4,65.1,30.14,East,99,0.0,0.0,99,0.00,,---,0.00,VWS V14.01,2013-08-21 09:28:00,
2013-08-21 05:30:00,65.5,65.2,30.14,East,98,0.0,0.0,99,0.00,,---,0.00,VWS V14.01,2013-08-21 09:30:00,
2013-08-21 05:33:00,65.5,65.2,30.14,East,98,0.0,0.0,99,0.00,,---,0.00,VWS V14.01,2013-08-21 09:33:00,
2013-08-21 05:38:00,65.7,65.4,30.14,East,98,0.0,0.0,99,0.00,,---,0.00,VWS V14.01,2013-08-21 09:38:00,
2013-08-21 05:40:00,65.7,65.4,30.14,East,98,0.0,0.0,99,0.00,,---,0.00,VWS V14.01,2013-08-21 09:40:00,
2013-08-21 05:43:00,65.8,65.5,30.14,East,98,0.0,0.0,99,0.00,,---,0.00,VWS V14.01,2013-08-21 09:43:00,
2013-08-21 05:48:00,66.0,65.7,30.14,East,98,0.0,0.0,99,0.00,,---,0.00,VWS V14.01,2013-08-21 09:48:00,
2013-08-21 05:50:00,66.0,65.7,30.14,East,98,0.0,0.0,99,0.00,,---,0.00,VWS V14.01,2013-08-21 09:50:00,
2013-08-21 05:53:00,66.2,65.9,30.14,East,98,0.0,0.0,99,0.00,,---,0.00,VWS V14.01,2013-08-21 09:53:00,
2013-08-21 05:58:00,66.3,66.0,30.14,East,98,0.0,0.0,99,0.00,,---,0.00,VWS V14.01,2013-08-21 09:58:00,
2013-08-21 06:00:00,66.4,66.1,30.14,East,98,0.0,0.0,99,0.00,,---,0.00,VWS V14.01,2013-08-21 10:00:00,
2013-08-21 06:03:00,66.4,66.1,30.15,East,99,0.0,0.0,99,0.00,,---,0.00,VWS V14.01,2013-08-21 10:03:00,
2013-08-21 06:08:00,66.5,66.2,30.14,East,99,0.0,0.0,99,0.00,,---,0.00,VWS V14.01,2013-08-21 10:08:00,
2013-08-21 06:10:00,66.5,66.2,30.14,East,98,0.0,0.0,99,0.00,,---,0.00,VWS V14.01,2013-08-21 10:10:00,
2013-08-21 06:13:00,66.5,66.2,30.15,East,99,0.0,0.0,99,0.00,,---,0.00,VWS V14.01,2013-08-21 10:13:00,
2013-08-21 06:18:00,66.6,66.3,30.15,East,98,0.0,0.0,99,0.00,,---,0.00,VWS V14.01,2013-08-21 10:18:00,
2013-08-21 06:20:00,66.6,66.3,30.15,East,98,0.0,0.0,99,0.00,,---,0.00,VWS V14.01,2013-08-21 10:20:00,
2013-08-21 06:23:00,66.7,66.4,30.15,East,99,0.0,0.0,99,0.00,,---,0.00,VWS V14.01,2013-08-21 10:23:00,
2013-08-21 06:28:00,66.7,66.4,30.15,East,99,0.0,0.0,99,0.00,,---,0.00,VWS V14.01,2013-08-21 10:28:00,
2013-08-21 06:30:00,66.7,66.4,30.15,East,99,0.0,0.0,99,0.00,,---,0.00,VWS V14.01,2013-08-21 10:30:00,
2013-08-21 06:33:00,66.7,66.4,30.15,East,99,0.0,0.0,99,0.00,,---,0.00,VWS V14.01,2013-08-21 10:33:00,
2013-08-21 06:38:00,66.8,66.5,30.15,East,99,0.0,0.0,99,0.00,,---,0.00,VWS V14.01,2013-08-21 10:38:00,
2013-08-21 06:40:00,66.8,66.5,30.15,East,99,0.0,0.0,99,0.00,,---,0.00,VWS V14.01,2013-08-21 10:40:00,
2013-08-21 06:43:00,66.8,66.5,30.16,East,99,0.0,0.0,99,0.00,,---,0.00,VWS V14.01,2013-08-21 10:43:00,
2013-08-21 06:48:00,66.8,66.5,30.16,East,98,0.0,0.0,99,0.00,,---,0.00,VWS V14.01,2013-08-21 10:48:00,
2013-08-21 06:50:00,66.8,66.5,30.16,East,98,0.0,0.0,99,0.00,,---,0.00,VWS V14.01,2013-08-21 10:50:00,
2013-08-21 06:53:00,66.9,66.6,30.16,East,99,0.0,0.0,99,0.00,,---,0.00,VWS V14.01,2013-08-21 10:53:00,
2013-08-21 06:58:00,67.1,66.8,30.16,East,99,0.0,0.0,99,0.00,,---,0.00,VWS V14.01,2013-08-21 10:58:00,
2013-08-21 07:00:00,67.1,66.8,30.16,East,98,0.0,0.0,99,0.00,,---,0.00,VWS V14.01,2013-08-21 11:00:00,
2013-08-21 07:03:00,67.2,66.9,30.16,East,99,0.0,0.0,99,0.00,,---,0.00,VWS V14.01,2013-08-21 11:03:00,
2013-08-21 07:08:00,67.3,67.0,30.16,East,98,0.0,0.0,99,0.00,,---,0.00,VWS V14.01,2013-08-21 11:08:00,
2013-08-21 07:10:00,67.3,67.0,30.16,East,98,0.0,0.0,99,0.00,,---,0.00,VWS V14.01,2013-08-21 11:10:00,
2013-08-21 07:13:00,67.5,67.2,30.17,East,98,0.0,0.0,99,0.00,,---,0.00,VWS V14.01,2013-08-21 11:13:00,
2013-08-21 07:18:00,67.6,67.3,30.17,East,98,0.0,0.0,99,0.00,,---,0.00,VWS V14.01,2013-08-21 11:18:00,
2013-08-21 07:20:00,67.7,67.4,30.17,East,98,0.0,0.0,99,0.00,,---,0.00,VWS V14.01,2013-08-21 11:20:00,
2013-08-21 07:23:00,67.7,67.4,30.17,East,99,0.0,0.0,99,0.00,,---,0.00,VWS V14.01,2013-08-21 11:23:00,
2013-08-21 07:28:00,67.8,67.5,30.17,East,99,0.0,0.0,99,0.00,,---,0.00,VWS V14.01,2013-08-21 11:28:00,
2013-08-21 07:30:00,67.7,67.4,30.17,East,99,0.0,0.0,99,0.00,,---,0.00,VWS V14.01,2013-08-21 11:30:00,
2013-08-21 07:33:00,67.8,67.5,30.17,East,99,0.0,0.0,99,0.00,,---,0.00,VWS V14.01,2013-08-21 11:33:00,
2013-08-21 07:38:00,67.7,67.4,30.17,East,101,0.0,0.0,99,0.00,,---,0.00,VWS V14.01,2013-08-21 11:38:00,
2013-08-21 07:40:00,67.7,67.4,30.18,East,101,0.0,0.0,99,0.00,,---,0.00,VWS V14.01,2013-08-21 11:40:00,
2013-08-21 07:43:00,67.8,67.5,30.18,West,276,0.0,1.0,99,0.00,,---,0.00,VWS V14.01,2013-08-21 11:43:00,
2013-08-21 07:48:00,67.8,67.5,30.18,WSW,255,0.0,1.0,99,0.00,,---,0.00,VWS V14.01,2013-08-21 11:48:00,
2013-08-21 07:50:00,67.8,67.5,30.18,West,264,0.0,1.0,99,0.00,,---,0.00,VWS V14.01,2013-08-21 11:50:00,
2013-08-21 07:53:00,67.8,67.5,30.18,West,263,0.0,1.0,99,0.00,,---,0.00,VWS V14.01,2013-08-21 11:53:00,
2013-08-21 07:58:00,68.0,67.7,30.18,West,263,0.0,1.0,99,0.00,,---,0.00,VWS V14.01,2013-08-21 11:58:00,
2013-08-21 08:00:00,68.0,67.7,30.18,West,263,0.0,1.0,99,0.00,,---,0.00,VWS V14.01,2013-08-21 12:00:00,
2013-08-21 08:03:00,68.1,67.8,30.18,West,263,0.0,1.0,99,0.00,,---,0.00,VWS V14.01,2013-08-21 12:03:00,
2013-08-21 08:08:00,68.1,67.8,30.18,West,281,0.0,1.0,99,0.00,,---,0.00,VWS V14.01,2013-08-21 12:08:00,
2013-08-21 08:10:00,68.2,67.9,30.18,West,281,0.0,1.0,99,0.00,,---,0.00,VWS V14.01,2013-08-21 12:10:00,
2013-08-21 08:13:00,68.2,67.9,30.18,WSW,251,0.0,1.0,99,0.00,,---,0.00,VWS V14.01,2013-08-21 12:13:00,
2013-08-21 08:18:00,68.2,67.9,30.18,WNW,288,0.0,1.0,99,0.00,,---,0.00,VWS V14.01,2013-08-21 12:18:00,
2013-08-21 08:20:00,68.2,67.9,30.18,WNW,288,0.0,1.0,99,0.00,,---,0.00,VWS V14.01,2013-08-21 12:20:00,
2013-08-21 08:23:00,68.4,68.1,30.18,West,281,0.0,1.0,99,0.00,,---,0.00,VWS V14.01,2013-08-21 12:23:00,
2013-08-21 08:28:00,68.5,68.2,30.18,West,271,1.0,2.0,99,0.00,,---,0.00,VWS V14.01,2013-08-21 12:28:00,
2013-08-21 08:30:00,68.6,68.3,30.18,WSW,253,0.0,2.0,99,0.00,,---,0.00,VWS V14.01,2013-08-21 12:30:00,
2013-08-21 08:33:00,68.5,68.2,30.19,West,263,0.0,4.0,99,0.00,,---,0.00,VWS V14.01,2013-08-21 12:33:00,
2013-08-21 08:38:00,68.7,68.4,30.19,West,266,0.0,4.0,99,0.00,,---,0.00,VWS V14.01,2013-08-21 12:38:00,
2013-08-21 08:40:00,68.7,68.4,30.19,West,266,0.0,4.0,99,0.00,,---,0.00,VWS V14.01,2013-08-21 12:40:00,
2013-08-21 08:43:00,68.8,68.5,30.19,SW,235,1.0,2.0,99,0.00,,---,0.00,VWS V14.01,2013-08-21 12:43:00,
2013-08-21 08:48:00,68.9,68.6,30.19,West,270,0.0,2.0,99,0.00,,---,0.00,VWS V14.01,2013-08-21 12:48:00,
2013-08-21 08:50:00,68.9,68.6,30.19,West,270,0.0,2.0,99,0.00,,---,0.00,VWS V14.01,2013-08-21 12:50:00,
2013-08-21 08:53:00,69.2,68.9,30.19,WSW,250,0.0,1.0,99,0.00,,---,0.00,VWS V14.01,2013-08-21 12:53:00,
2013-08-21 08:58:00,69.6,69.3,30.19,SSW,212,0.0,2.0,99,0.00,,---,0.00,VWS V14.01,2013-08-21 12:58:00,
2013-08-21 09:00:00,69.6,69.3,30.19,SSW,212,0.0,2.0,99,0.00,,---,0.00,VWS V14.01,2013-08-21 13:00:00,
2013-08-21 09:03:00,70.0,69.7,30.19,NNW,337,0.0,1.0,99,0.00,,---,0.00,VWS V14.01,2013-08-21 13:03:00,
2013-08-21 09:08:00,70.0,69.4,30.18,NNE,31,0.0,1.0,98,0.00,,---,0.00,VWS V14.01,2013-08-21 13:08:00,
2013-08-21 09:10:00,70.0,69.4,30.18,NE,34,0.0,1.0,98,0.00,,---,0.00,VWS V14.01,2013-08-21 13:10:00,
2013-08-21 09:13:00,70.2,69.6,30.18,ENE,62,0.0,0.0,98,0.00,,---,0.00,VWS V14.01,2013-08-21 13:13:00,
2013-08-21 09:18:00,70.7,70.4,30.18,NNW,340,0.0,1.0,99,0.00,,---,0.00,VWS V14.01,2013-08-21 13:18:00,
2013-08-21 09:20:00,70.7,70.4,30.18,NNW,340,0.0,1.0,99,0.00,,---,0.00,VWS V14.01,2013-08-21 13:20:00,
2013-08-21 09:23:00,71.4,71.1,30.18,NNW,340,0.0,0.0,99,0.00,,---,0.00,VWS V14.01,2013-08-21 13:23:00,
2013-08-21 09:28:00,72.2,71.9,30.18,NNW,338,0.0,1.0,99,0.00,,---,0.00,VWS V14.01,2013-08-21 13:28:00,
2013-08-21 09:30:00,72.3,72.0,30.18,NNW,338,0.0,1.0,99,0.00,,---,0.00,VWS V14.01,2013-08-21 13:30:00,
2013-08-21 09:33:00,72.5,71.9,30.18,NE,39,0.0,2.0,98,0.00,,---,0.00,VWS V14.01,2013-08-21 13:33:00,
2013-08-21 09:38:00,73.1,72.5,30.18,SSW,207,0.0,2.0,98,0.00,,---,0.00,VWS V14.01,2013-08-21 13:38:00,
2013-08-21 09:40:00,73.2,72.6,30.18,SSW,204,0.0,2.0,98,0.00,,---,0.00,VWS V14.01,2013-08-21 13:40:00,
2013-08-21 09:44:00,73.6,72.4,30.18,WSW,256,2.0,4.0,96,0.00,,---,0.00,VWS V14.01,2013-08-21 13:44:00,
2013-08-21 09:49:00,73.8,72.6,30.18,SW,226,0.0,4.0,96,0.00,,---,0.00,VWS V14.01,2013-08-21 13:49:00,
2013-08-21 09:50:00,73.8,72.6,30.18,SW,226,0.0,4.0,96,0.00,,---,0.00,VWS V14.01,2013-08-21 13:50:00,
2013-08-21 09:54:00,74.7,73.5,30.18,NW,305,0.0,3.0,96,0.00,,---,0.00,VWS V14.01,2013-08-21 13:54:00,
2013-08-21 09:59:00,75.8,74.9,30.18,WSW,238,1.0,3.0,97,0.00,,---,0.00,VWS V14.01,2013-08-21 13:59:00,
2013-08-21 10:00:00,75.9,75.0,30.18,West,269,1.0,3.0,97,0.00,,---,0.00,VWS V14.01,2013-08-21 14:00:00,
2013-08-21 10:04:00,76.6,74.1,30.18,WSW,242,0.0,3.0,92,0.00,,---,0.00,VWS V14.01,2013-08-21 14:04:00,
2013-08-21 10:09:00,77.2,74.0,30.18,SW,218,3.0,5.0,90,0.00,,---,0.00,VWS V14.01,2013-08-21 14:09:00,
2013-08-21 10:10:00,77.3,73.5,30.18,SW,218,3.0,5.0,88,0.00,,---,0.00,VWS V14.01,2013-08-21 14:10:00,
2013-08-21 10:14:00,77.9,73.7,30.18,WSW,243,2.0,5.0,87,0.00,,---,0.00,VWS V14.01,2013-08-21 14:14:00,
2013-08-21 10:19:00,78.1,73.6,30.17,WSW,238,2.0,5.0,86,0.00,,---,0.00,VWS V14.01,2013-08-21 14:19:00,
2013-08-21 10:20:00,78.1,73.6,30.17,WSW,257,2.0,5.0,86,0.00,,---,0.00,VWS V14.01,2013-08-21 14:20:00,
2013-08-21 10:24:00,78.5,73.6,30.18,West,263,1.0,5.0,85,0.00,,---,0.00,VWS V14.01,2013-08-21 14:24:00,
2013-08-21 10:29:00,78.7,73.5,30.18,SSW,196,2.0,7.0,84,0.00,,---,0.00,VWS V14.01,2013-08-21 14:29:00,
2013-08-21 10:30:00,78.7,73.5,30.18,South,186,3.0,7.0,84,0.00,,---,0.00,VWS V14.01,2013-08-21 14:30:00,
2013-08-21 10:34:00,79.2,73.9,30.18,South,187,2.0,5.0,84,0.00,,---,0.00,VWS V14.01,2013-08-21 14:34:00,
2013-08-21 10:39:00,79.7,74.1,30.18,SW,219,2.0,5.0,83,0.00,,---,0.00,VWS V14.01,2013-08-21 14:39:00,
2013-08-21 10:40:00,79.8,74.2,30.18,SSW,205,3.0,5.0,83,0.00,,---,0.00,VWS V14.01,2013-08-21 14:40:00,
2013-08-21 10:44:00,80.5,75.6,30.18,SW,215,3.0,6.0,85,0.00,,---,0.00,VWS V14.01,2013-08-21 14:44:00,
2013-08-21 10:49:00,80.7,74.0,30.18,WSW,252,4.0,8.0,80,0.00,,---,0.00,VWS V14.01,2013-08-21 14:49:00,
2013-08-21 10:50:00,80.7,74.0,30.18,WSW,243,4.0,8.0,80,0.00,,---,0.00,VWS V14.01,2013-08-21 14:50:00,
2013-08-21 10:54:00,81.0,74.6,30.18,West,269,2.0,7.0,81,0.00,,---,0.00,VWS V14.01,2013-08-21 14:54:00,
2013-08-21 10:59:00,81.2,75.6,30.18,SW,215,3.0,7.0,83,0.00,,---,0.00,VWS V14.01,2013-08-21 14:59:00,
2013-08-21 11:00:00,81.3,75.7,30.18,SSW,199,1.0,7.0,83,0.00,,---,0.00,VWS V14.01,2013-08-21 15:00:00,
2013-08-21 11:04:00,81.4,73.9,30.18,South,177,3.0,8.0,78,0.00,,---,0.00,VWS V14.01,2013-08-21 15:04:00,
2013-08-21 11:09:00,81.1,74.0,30.18,WNW,293,6.0,8.0,79,0.00,,---,0.00,VWS V14.01,2013-08-21 15:09:00,
2013-08-21 11:10:00,81.1,73.2,30.18,NW,307,5.0,8.0,77,0.00,,---,0.00,VWS V14.01,2013-08-21 15:10:00,
2013-08-21 11:14:00,80.6,73.9,30.17,West,266,4.0,10.0,80,0.00,,---,0.00,VWS V14.01,2013-08-21 15:14:00,
2013-08-21 11:19:00,80.7,73.2,30.18,WSW,245,4.0,10.0,78,0.00,,---,0.00,VWS V14.01,2013-08-21 15:19:00,
2013-08-21 11:20:00,80.7,73.2,30.18,SW,227,2.0,10.0,78,0.00,,---,0.00,VWS V14.01,2013-08-21 15:20:00,
2013-08-21 11:24:00,80.7,72.4,30.17,SW,217,3.0,6.0,76,0.00,,---,0.00,VWS V14.01,2013-08-21 15:24:00,
2013-08-21 11:29:00,81.3,73.8,30.18,SSW,205,5.0,8.0,78,0.00,,---,0.00,VWS V14.01,2013-08-21 15:29:00,
2013-08-21 11:30:00,81.4,73.9,30.18,SSW,194,5.0,8.0,78,0.00,,---,0.00,VWS V14.01,2013-08-21 15:30:00,
2013-08-21 11:34:00,82.0,73.7,30.17,SSW,207,5.0,7.0,76,0.00,,---,0.00,VWS V14.01,2013-08-21 15:34:00,
2013-08-21 11:39:00,82.5,73.4,30.17,WSW,255,5.0,8.0,74,0.00,,---,0.00,VWS V14.01,2013-08-21 15:39:00,
2013-08-21 11:40:00,82.5,73.4,30.17,West,264,5.0,8.0,74,0.00,,---,0.00,VWS V14.01,2013-08-21 15:40:00,
2013-08-21 11:44:00,82.7,75.2,30.17,SSW,197,2.0,7.0,78,0.00,,---,0.00,VWS V14.01,2013-08-21 15:44:00,
2013-08-21 11:49:00,82.7,73.6,30.17,SSW,196,0.0,7.0,74,0.00,,---,0.00,VWS V14.01,2013-08-21 15:49:00,
2013-08-21 11:50:00,82.7,73.6,30.17,SSW,212,2.0,7.0,74,0.00,,---,0.00,VWS V14.01,2013-08-21 15:50:00,
2013-08-21 11:54:00,82.5,72.6,30.17,SSW,210,6.0,9.0,72,0.00,,---,0.00,VWS V14.01,2013-08-21 15:54:00,
2013-08-21 11:59:00,82.1,72.2,30.17,SW,229,4.0,9.0,72,0.00,,---,0.00,VWS V14.01,2013-08-21 15:59:00,
2013-08-21 12:00:00,82.1,72.2,30.17,SW,229,4.0,9.0,72,0.00,,---,0.00,VWS V14.01,2013-08-21 16:00:00,
2013-08-21 12:04:00,82.1,72.6,30.17,SSW,201,4.0,5.0,73,0.00,,---,0.00,VWS V14.01,2013-08-21 16:04:00,
2013-08-21 12:09:00,82.0,72.1,30.17,SW,219,3.0,8.0,72,0.00,,---,0.00,VWS V14.01,2013-08-21 16:09:00,
2013-08-21 12:10:00,82.0,72.1,30.17,SW,219,3.0,8.0,72,0.00,,---,0.00,VWS V14.01,2013-08-21 16:10:00,
2013-08-21 12:14:00,81.9,72.4,30.17,SW,224,6.0,7.0,73,0.00,,---,0.00,VWS V14.01,2013-08-21 16:14:00,
2013-08-21 12:19:00,81.7,72.6,30.17,WSW,257,2.0,2.0,74,0.00,,---,0.00,VWS V14.01,2013-08-21 16:19:00,
2013-08-21 12:20:00,81.7,72.6,30.17,West,273,2.0,7.0,74,0.00,,---,0.00,VWS V14.01,2013-08-21 16:20:00,
2013-08-21 12:24:00,81.7,72.6,30.17,SW,233,2.0,5.0,74,0.00,,---,0.00,VWS V14.01,2013-08-21 16:24:00,
2013-08-21 12:29:00,81.7,72.6,30.17,SSW,210,2.0,2.0,74,0.00,,---,0.00,VWS V14.01,2013-08-21 16:29:00,
2013-08-21 12:30:00,81.7,72.6,30.17,SSW,209,2.0,5.0,74,0.00,,---,0.00,VWS V14.01,2013-08-21 16:30:00,
2013-08-21 12:34:00,82.0,73.7,30.17,West,260,2.0,5.0,76,0.00,,---,0.00,VWS V14.01,2013-08-21 16:34:00,
2013-08-21 12:39:00,82.2,73.1,30.17,West,264,3.0,4.0,74,0.00,,---,0.00,VWS V14.01,2013-08-21 16:39:00,
2013-08-21 12:40:00,82.2,73.1,30.17,WNW,286,3.0,7.0,74,0.00,,---,0.00,VWS V14.01,2013-08-21 16:40:00,
2013-08-21 12:44:00,82.2,73.9,30.16,SW,228,2.0,4.0,76,0.00,,---,0.00,VWS V14.01,2013-08-21 16:44:00,
2013-08-21 12:49:00,82.3,73.6,30.16,SW,222,4.0,5.0,75,0.00,,---,0.00,VWS V14.01,2013-08-21 16:49:00,
2013-08-21 12:50:00,82.3,73.6,30.16,SW,225,4.0,7.0,75,0.00,,---,0.00,VWS V14.01,2013-08-21 16:50:00,
2013-08-21 12:54:00,82.4,73.3,30.16,WSW,248,6.0,9.0,74,0.00,,---,0.00,VWS V14.01,2013-08-21 16:54:00,
2013-08-21 12:59:00,82.2,73.9,30.16,WSW,248,3.0,3.0,76,0.00,,---,0.00,VWS V14.01,2013-08-21 16:59:00,
2013-08-21 13:00:00,82.2,73.1,30.16,WNW,290,2.0,9.0,74,0.00,,---,0.00,VWS V14.01,2013-08-21 17:00:00,
2013-08-21 13:04:00,82.9,72.9,30.16,SW,228,3.0,7.0,72,0.00,,---,0.00,VWS V14.01,2013-08-21 17:04:00,
2013-08-21 13:09:00,83.1,73.6,30.16,South,191,4.0,4.0,73,0.00,,---,0.00,VWS V14.01,2013-08-21 17:09:00,
2013-08-21 13:10:00,83.1,73.6,30.16,SW,224,4.0,7.0,73,0.00,,---,0.00,VWS V14.01,2013-08-21 17:10:00,
2013-08-21 13:14:00,83.5,73.1,30.15,WSW,238,3.0,7.0,71,0.00,,---,0.00,VWS V14.01,2013-08-21 17:14:00,
2013-08-21 13:19:00,84.1,74.1,30.15,WSW,245,3.0,3.0,72,0.00,,---,0.00,VWS V14.01,2013-08-21 17:19:00,
2013-08-21 13:20:00,84.1,74.1,30.15,SW,222,3.0,7.0,72,0.00,,---,0.00,VWS V14.01,2013-08-21 17:20:00,
2013-08-21 13:24:00,84.8,73.9,30.15,SSW,211,4.0,5.0,70,0.00,,---,0.00,VWS V14.01,2013-08-21 17:24:00,
2013-08-21 13:29:00,85.1,74.2,30.15,WSW,255,4.0,4.0,70,0.00,,---,0.00,VWS V14.01,2013-08-21 17:29:00,
2013-08-21 13:30:00,85.1,74.2,30.15,West,271,3.0,8.0,70,0.00,,---,0.00,VWS V14.01,2013-08-21 17:30:00,
2013-08-21 13:34:00,84.9,74.4,30.15,WSW,255,3.0,6.0,71,0.00,,---,0.00,VWS V14.01,2013-08-21 17:34:00,
2013-08-21 13:39:00,85.2,73.9,30.14,SSW,212,2.0,3.0,69,0.00,,---,0.00,VWS V14.01,2013-08-21 17:39:00,
2013-08-21 13:40:00,85.2,73.9,30.14,SW,214,3.0,6.0,69,0.00,,---,0.00,VWS V14.01,2013-08-21 17:40:00,
2013-08-21 13:44:00,85.3,73.6,30.14,SSE,160,7.0,8.0,68,0.00,,---,0.00,VWS V14.01,2013-08-21 17:44:00,
2013-08-21 13:49:00,85.6,72.9,30.13,West,273,0.0,0.0,66,0.00,,---,0.00,VWS V14.01,2013-08-21 17:49:00,
2013-08-21 13:50:00,85.6,73.8,30.13,West,273,0.0,8.0,68,0.00,,---,0.00,VWS V14.01,2013-08-21 17:50:00,
2013-08-21 13:54:00,85.4,72.8,30.13,South,177,3.0,10.0,66,0.00,,---,0.00,VWS V14.01,2013-08-21 17:54:00,
2013-08-21 13:59:00,85.0,72.8,30.13,ESE,117,2.0,3.0,67,0.00,,---,0.00,VWS V14.01,2013-08-21 17:59:00,
2013-08-21 14:00:00,85.0,72.4,30.13,South,186,2.0,10.0,66,0.00,,---,0.00,VWS V14.01,2013-08-21 18:00:00,
2013-08-21 14:04:00,85.1,72.5,30.12,ESE,114,0.0,5.0,66,0.00,,---,0.00,VWS V14.01,2013-08-21 18:04:00,
2013-08-21 14:09:00,85.1,71.6,30.12,SW,219,1.0,2.0,64,0.00,,---,0.00,VWS V14.01,2013-08-21 18:09:00,
2013-08-21 14:10:00,85.1,71.6,30.13,SSW,212,2.0,9.0,64,0.00,,---,0.00,VWS V14.01,2013-08-21 18:10:00,
2013-08-21 14:14:00,85.2,72.6,30.12,WSW,246,5.0,7.0,66,0.00,,---,0.00,VWS V14.01,2013-08-21 18:14:00,
2013-08-21 14:19:00,85.5,72.4,30.12,South,176,7.0,9.0,65,0.00,,---,0.00,VWS V14.01,2013-08-21 18:19:00,
2013-08-21 14:20:00,85.5,72.4,30.12,SE,139,4.0,8.0,65,0.00,,---,0.00,VWS V14.01,2013-08-21 18:20:00,
2013-08-21 14:24:00,85.7,71.7,30.12,SW,219,5.0,10.0,63,0.00,,---,0.00,VWS V14.01,2013-08-21 18:24:00,
2013-08-21 14:29:00,85.5,72.8,30.12,SSW,203,4.0,5.0,66,0.00,,---,0.00,VWS V14.01,2013-08-21 18:29:00,
2013-08-21 14:30:00,85.4,72.8,30.12,SSW,205,3.0,10.0,66,0.00,,---,0.00,VWS V14.01,2013-08-21 18:30:00,
2013-08-21 14:34:00,85.5,72.4,30.11,SE,138,3.0,9.0,65,0.00,,---,0.00,VWS V14.01,2013-08-21 18:34:00,
2013-08-21 14:39:00,85.4,71.4,30.12,South,179,4.0,6.0,63,0.00,,---,0.00,VWS V14.01,2013-08-21 18:39:00,
2013-08-21 14:40:00,85.4,72.8,30.12,South,191,6.0,12.0,66,0.00,,---,0.00,VWS V14.01,2013-08-21 18:40:00,
2013-08-21 14:44:00,85.5,72.8,30.11,SE,132,1.0,6.0,66,0.00,,---,0.00,VWS V14.01,2013-08-21 18:44:00,
2013-08-21 14:49:00,85.7,72.1,30.11,SSW,205,6.0,8.0,64,0.00,,---,0.00,VWS V14.01,2013-08-21 18:49:00,
2013-08-21 14:50:00,85.7,72.6,30.11,SSW,195,5.0,6.0,65,0.00,,---,0.00,VWS V14.01,2013-08-21 18:50:00,
2013-08-21 14:54:00,86.0,72.9,30.11,WSW,242,3.0,8.0,65,0.00,,---,0.00,VWS V14.01,2013-08-21 18:54:00,
2013-08-21 14:59:00,86.1,72.0,30.11,SE,145,6.0,7.0,63,0.00,,---,0.00,VWS V14.01,2013-08-21 18:59:00,
2013-08-21 15:00:00,86.1,73.0,30.11,South,183,6.0,8.0,65,0.00,,---,0.00,VWS V14.01,2013-08-21 19:00:00,
2013-08-21 15:04:00,85.8,71.8,30.10,SSE,158,2.0,9.0,63,0.00,,---,0.00,VWS V14.01,2013-08-21 19:04:00,
2013-08-21 15:09:00,85.3,72.2,30.10,SSE,165,1.0,6.0,65,0.00,,---,0.00,VWS V14.01,2013-08-21 19:09:00,
2013-08-21 15:10:00,85.3,72.2,30.10,SSW,193,5.0,9.0,65,0.00,,---,0.00,VWS V14.01,2013-08-21 19:10:00,
2013-08-21 15:14:00,85.0,72.8,30.10,SSW,199,2.0,9.0,67,0.00,,---,0.00,VWS V14.01,2013-08-21 19:14:00,
2013-08-21 15:19:00,85.1,72.5,30.10,South,191,2.0,4.0,66,0.00,,---,0.00,VWS V14.01,2013-08-21 19:19:00,
2013-08-21 15:20:00,85.1,72.5,30.10,SSW,207,3.0,9.0,66,0.00,,---,0.00,VWS V14.01,2013-08-21 19:20:00,
2013-08-21 15:24:00,85.1,72.0,30.09,SW,219,9.0,9.0,65,0.00,,---,0.00,VWS V14.01,2013-08-21 19:24:00,
2013-08-21 15:29:00,85.1,71.6,30.09,South,175,2.0,4.0,64,0.00,,---,0.00,VWS V14.01,2013-08-21 19:29:00,
2013-08-21 15:30:00,85.1,71.6,30.09,SW,215,3.0,9.0,64,0.00,,---,0.00,VWS V14.01,2013-08-21 19:30:00,
2013-08-21 15:34:00,85.3,72.2,30.09,SW,219,0.0,8.0,65,0.00,,---,0.00,VWS V14.01,2013-08-21 19:34:00,
2013-08-21 15:39:00,85.4,71.4,30.09,SSW,200,4.0,4.0,63,0.00,,---,0.00,VWS V14.01,2013-08-21 19:39:00,
2013-08-21 15:40:00,85.4,70.9,30.09,SW,226,3.0,9.0,62,0.00,,---,0.00,VWS V14.01,2013-08-21 19:40:00,
2013-08-21 15:44:00,85.5,73.7,30.09,SSW,193,3.0,6.0,68,0.00,,---,0.00,VWS V14.01,2013-08-21 19:44:00,
2013-08-21 15:49:00,85.2,71.7,30.09,SW,224,6.0,6.0,64,0.00,,---,0.00,VWS V14.01,2013-08-21 19:49:00,
2013-08-21 15:50:00,85.3,72.7,30.09,SSW,203,5.0,8.0,66,0.00,,---,0.00,VWS V14.01,2013-08-21 19:50:00,
2013-08-21 15:54:00,85.0,72.8,30.08,SW,233,4.0,6.0,67,0.00,,---,0.00,VWS V14.01,2013-08-21 19:54:00,
2013-08-21 16:00:00,84.7,73.0,30.08,SSE,167,3.0,4.0,68,0.00,,---,0.00,VWS V14.01,2013-08-21 20:00:00,
2013-08-21 16:05:00,85.0,73.3,30.08,SW,215,4.0,7.0,68,0.00,,---,0.00,VWS V14.01,2013-08-21 20:05:00,
2013-08-21 16:10:00,85.1,72.0,30.08,SSW,200,3.0,4.0,65,0.00,,---,0.00,VWS V14.01,2013-08-21 20:10:00,
2013-08-21 16:15:00,85.5,72.8,30.08,SSE,165,1.0,5.0,66,0.00,,---,0.00,VWS V14.01,2013-08-21 20:15:00,
2013-08-21 16:20:00,85.9,73.2,30.08,WSW,245,2.0,7.0,66,0.00,,---,0.00,VWS V14.01,2013-08-21 20:20:00,
2013-08-21 16:25:00,85.8,73.6,30.08,WSW,255,5.0,7.0,67,0.00,,---,0.00,VWS V14.01,2013-08-21 20:25:00,
2013-08-21 16:30:00,86.1,73.4,30.08,SSE,165,3.0,6.0,66,0.00,,---,0.00,VWS V14.01,2013-08-21 20:30:00,
2013-08-21 16:35:00,86.5,72.9,30.08,SSW,212,6.0,9.0,64,0.00,,---,0.00,VWS V14.01,2013-08-21 20:35:00,
2013-08-21 16:40:00,86.3,73.2,30.08,WSW,255,4.0,6.0,65,0.00,,---,0.00,VWS V14.01,2013-08-21 20:40:00,
2013-08-21 16:45:00,85.6,72.9,30.08,SSW,207,2.0,6.0,66,0.00,,---,0.00,VWS V14.01,2013-08-21 20:45:00,
2013-08-21 16:50:00,84.9,73.2,30.08,SW,232,4.0,6.0,68,0.00,,---,0.00,VWS V14.01,2013-08-21 20:50:00,
2013-08-21 16:55:00,84.3,73.0,30.08,West,281,3.0,6.0,69,0.00,,---,0.00,VWS V14.01,2013-08-21 20:55:00,
2013-08-21 17:00:00,83.9,73.5,30.08,SSW,204,1.0,4.0,71,0.00,,---,0.00,VWS V14.01,2013-08-21 21:00:00,
2013-08-21 17:05:00,83.7,73.7,30.08,WSW,249,0.0,4.0,72,0.00,,---,0.00,VWS V14.01,2013-08-21 21:05:00,
2013-08-21 17:10:00,83.7,74.1,30.08,SSW,203,3.0,3.0,73,0.00,,---,0.00,VWS V14.01,2013-08-21 21:10:00,
2013-08-21 17:15:00,83.9,73.9,30.07,SSW,198,2.0,6.0,72,0.00,,---,0.00,VWS V14.01,2013-08-21 21:15:00,
2013-08-21 17:20:00,84.5,74.1,30.07,SSE,163,4.0,5.0,71,0.00,,---,0.00,VWS V14.01,2013-08-21 21:20:00,
2013-08-21 17:25:00,84.8,73.5,30.07,WSW,245,4.0,6.0,69,0.00,,---,0.00,VWS V14.01,2013-08-21 21:25:00,
2013-08-21 17:30:00,84.3,73.9,30.07,WSW,249,4.0,4.0,71,0.00,,---,0.00,VWS V14.01,2013-08-21 21:30:00,
2013-08-21 17:35:00,83.9,73.9,30.07,SW,221,0.0,4.0,72,0.00,,---,0.00,VWS V14.01,2013-08-21 21:35:00,
2013-08-21 17:40:00,83.6,73.6,30.08,SSW,210,1.0,1.0,72,0.00,,---,0.00,VWS V14.01,2013-08-21 21:40:00,
2013-08-21 17:45:00,83.5,73.9,30.08,WSW,246,0.0,2.0,73,0.00,,---,0.00,VWS V14.01,2013-08-21 21:45:00,
2013-08-21 17:50:00,83.3,73.8,30.08,SW,219,0.0,2.0,73,0.00,,---,0.00,VWS V14.01,2013-08-21 21:50:00,
2013-08-21 17:55:00,83.2,74.1,30.08,West,267,1.0,3.0,74,0.00,,---,0.00,VWS V14.01,2013-08-21 21:55:00,
2013-08-21 18:00:00,83.0,74.3,30.08,West,273,0.0,1.0,75,0.00,,---,0.00,VWS V14.01,2013-08-21 22:00:00,
2013-08-21 18:05:00,82.8,74.9,30.08,West,273,0.0,1.0,77,0.00,,---,0.00,VWS V14.01,2013-08-21 22:05:00,
2013-08-21 18:10:00,82.7,74.8,30.08,West,273,0.0,0.0,77,0.00,,---,0.00,VWS V14.01,2013-08-21 22:10:00,
2013-08-21 18:15:00,82.5,74.9,30.07,SSW,205,0.0,1.0,78,0.00,,---,0.00,VWS V14.01,2013-08-21 22:15:00,
2013-08-21 18:20:00,82.3,75.1,30.07,SE,131,0.0,0.0,79,0.00,,---,0.00,VWS V14.01,2013-08-21 22:20:00,
2013-08-21 18:25:00,82.0,74.1,30.07,SW,228,2.0,3.0,77,0.00,,---,0.00,VWS V14.01,2013-08-21 22:25:00,
2013-08-21 18:30:00,81.6,73.7,30.07,WSW,245,0.0,3.0,77,0.00,,---,0.00,VWS V14.01,2013-08-21 22:30:00,
2013-08-21 18:35:00,81.3,73.8,30.06,WSW,253,2.0,3.0,78,0.00,,---,0.00,VWS V14.01,2013-08-21 22:35:00,
2013-08-21 18:40:00,81.0,73.5,30.07,WSW,256,1.0,1.0,78,0.00,,---,0.00,VWS V14.01,2013-08-21 22:40:00,
2013-08-21 18:45:00,80.7,74.0,30.07,WSW,242,1.0,2.0,80,0.00,,---,0.00,VWS V14.01,2013-08-21 22:45:00,
2013-08-21 18:50:00,80.5,73.8,30.06,WSW,245,0.0,2.0,80,0.00,,---,0.00,VWS V14.01,2013-08-21 22:50:00,
2013-08-21 18:55:00,80.2,73.8,30.06,WSW,248,0.0,2.0,81,0.00,,---,0.00,VWS V14.01,2013-08-21 22:55:00,
2013-08-21 19:00:00,79.9,73.9,30.06,West,273,0.0,0.0,82,0.00,,---,0.00,VWS V14.01,2013-08-21 23:00:00,
2013-08-21 19:05:00,79.6,74.0,30.06,WNW,297,1.0,2.0,83,0.00,,---,0.00,VWS V14.01,2013-08-21 23:05:00,
2013-08-21 19:10:00,79.0,73.8,30.06,West,275,1.0,1.0,84,0.00,,---,0.00,VWS V14.01,2013-08-21 23:10:00,
2013-08-21 19:15:00,78.5,74.0,30.07,WSW,248,5.0,5.0,86,0.00,,---,0.00,VWS V14.01,2013-08-21 23:15:00,
2013-08-21 19:20:00,78.0,73.8,30.07,West,275,0.0,2.0,87,0.00,,---,0.00,VWS V14.01,2013-08-21 23:20:00,
2013-08-21 19:25:00,77.5,73.7,30.08,NW,305,0.0,3.0,88,0.00,,---,0.00,VWS V14.01,2013-08-21 23:25:00,
2013-08-21 19:30:00,77.2,73.7,30.08,WNW,295,1.0,2.0,89,0.00,,---,0.00,VWS V14.01,2013-08-21 23:30:00,
2013-08-21 19:35:00,76.9,73.4,30.08,WNW,293,1.0,3.0,89,0.00,,---,0.00,VWS V14.01,2013-08-21 23:35:00,
2013-08-21 19:40:00,76.6,73.1,30.09,WNW,291,4.0,4.0,89,0.00,,---,0.00,VWS V14.01,2013-08-21 23:40:00,
2013-08-21 19:45:00,76.3,72.2,30.09,West,267,1.0,9.0,87,0.00,,---,0.00,VWS V14.01,2013-08-21 23:45:00,
2013-08-21 19:50:00,76.0,71.2,30.09,WNW,298,2.0,6.0,85,0.00,,---,0.00,VWS V14.01,2013-08-21 23:50:00,
2013-08-21 19:55:00,75.6,70.8,30.08,WNW,297,6.0,6.0,85,0.00,,---,0.00,VWS V14.01,2013-08-21 23:55:00,
2013-08-21 20:00:00,75.2,70.0,30.09,NNW,330,2.0,4.0,84,0.00,,---,0.00,VWS V14.01,2013-08-22 00:00:00,
2013-08-21 20:05:00,74.8,68.9,30.09,WNW,294,0.0,6.0,82,0.00,,---,0.00,VWS V14.01,2013-08-22 00:05:00,
2013-08-21 20:10:00,74.4,68.2,30.09,West,264,2.0,2.0,81,0.00,,---,0.00,VWS V14.01,2013-08-22 00:10:00,
2013-08-21 20:15:00,74.1,67.9,30.08,NE,46,0.0,4.0,81,0.00,,---,0.00,VWS V14.01,2013-08-22 00:15:00,
2013-08-21 20:20:00,73.8,68.0,30.08,ESE,122,2.0,3.0,82,0.00,,---,0.00,VWS V14.01,2013-08-22 00:20:00,
2013-08-21 20:25:00,73.6,68.1,30.08,SSW,194,0.0,3.0,83,0.00,,---,0.00,VWS V14.01,2013-08-22 00:25:00,
2013-08-21 20:30:00,73.3,67.8,30.07,WNW,300,0.0,1.0,83,0.00,,---,0.00,VWS V14.01,2013-08-22 00:30:00,
2013-08-21 20:35:00,73.1,68.0,30.08,WNW,288,2.0,2.0,84,0.00,,---,0.00,VWS V14.01,2013-08-22 00:35:00,
2013-08-21 20:40:00,72.7,67.6,30.08,West,278,0.0,1.0,84,0.00,,---,0.00,VWS V14.01,2013-08-22 00:40:00,
2013-08-21 20:45:00,72.4,67.3,30.08,West,276,0.0,2.0,84,0.00,,---,0.00,VWS V14.01,2013-08-22 00:45:00,
2013-08-21 20:50:00,72.2,67.1,30.07,West,276,0.0,1.0,84,0.00,,---,0.00,VWS V14.01,2013-08-22 00:50:00,
2013-08-21 20:55:00,72.0,67.2,30.07,West,278,0.0,1.0,85,0.00,,---,0.00,VWS V14.01,2013-08-22 00:55:00,
2013-08-21 21:00:00,71.7,68.0,30.07,WSW,257,0.0,0.0,88,0.00,,---,0.00,VWS V14.01,2013-08-22 01:00:00,
2013-08-21 21:05:00,71.2,67.5,30.07,WSW,257,0.0,0.0,88,0.00,,---,0.00,VWS V14.01,2013-08-22 01:05:00,
2013-08-21 21:10:00,70.8,67.4,30.07,East,97,1.0,1.0,89,0.00,,---,0.00,VWS V14.01,2013-08-22 01:10:00,
2013-08-21 21:15:00,70.2,66.8,30.07,ENE,69,2.0,2.0,89,0.00,,---,0.00,VWS V14.01,2013-08-22 01:15:00,
2013-08-21 21:20:00,69.6,66.9,30.08,ENE,76,0.0,1.0,91,0.00,,---,0.00,VWS V14.01,2013-08-22 01:20:00,
2013-08-21 21:25:00,69.7,67.0,30.08,ENE,75,0.0,1.0,91,0.00,,---,0.00,VWS V14.01,2013-08-22 01:25:00,
2013-08-21 21:30:00,69.9,67.2,30.08,NNE,16,0.0,0.0,91,0.00,,---,0.00,VWS V14.01,2013-08-22 01:30:00,
2013-08-21 21:35:00,69.8,67.1,30.08,East,89,0.0,0.0,91,0.00,,---,0.00,VWS V14.01,2013-08-22 01:35:00,
2013-08-21 21:40:00,69.5,67.1,30.09,East,87,0.0,0.0,92,0.00,,---,0.00,VWS V14.01,2013-08-22 01:40:00,
2013-08-21 21:45:00,69.5,67.1,30.09,North,356,0.0,1.0,92,0.00,,---,0.00,VWS V14.01,2013-08-22 01:45:00,
2013-08-21 21:50:00,69.4,67.0,30.09,North,356,0.0,0.0,92,0.00,,---,0.00,VWS V14.01,2013-08-22 01:50:00,
2013-08-21 21:55:00,69.4,67.0,30.09,North,356,0.0,1.0,92,0.00,,---,0.00,VWS V14.01,2013-08-22 01:55:00,
2013-08-21 22:00:00,69.4,67.0,30.09,North,356,0.0,0.0,92,0.00,,---,0.00,VWS V14.01,2013-08-22 02:00:00,
2013-08-21 22:05:00,69.2,67.1,30.09,North,356,0.0,0.0,93,0.00,,---,0.00,VWS V14.01,2013-08-22 02:05:00,
2013-08-21 22:10:00,69.1,67.0,30.09,WNW,284,0.0,0.0,93,0.00,,---,0.00,VWS V14.01,2013-08-22 02:10:00,
2013-08-21 22:15:00,69.0,66.9,30.09,WNW,285,0.0,1.0,93,0.00,,---,0.00,VWS V14.01,2013-08-22 02:15:00,
2013-08-21 22:20:00,69.0,66.9,30.09,NW,326,0.0,1.0,93,0.00,,---,0.00,VWS V14.01,2013-08-22 02:20:00,
2013-08-21 22:25:00,69.1,67.0,30.09,NW,326,0.0,1.0,93,0.00,,---,0.00,VWS V14.01,2013-08-22 02:25:00,
2013-08-21 22:30:00,69.0,66.9,30.08,NW,325,0.0,0.0,93,0.00,,---,0.00,VWS V14.01,2013-08-22 02:30:00,
2013-08-21 22:35:00,68.8,67.0,30.09,NW,325,0.0,0.0,94,0.00,,---,0.00,VWS V14.01,2013-08-22 02:35:00,
2013-08-21 22:40:00,68.6,66.8,30.08,NW,325,0.0,0.0,94,0.00,,---,0.00,VWS V14.01,2013-08-22 02:40:00,
2013-08-21 22:45:00,68.7,67.2,30.08,NNW,330,0.0,0.0,95,0.00,,---,0.00,VWS V14.01,2013-08-22 02:45:00,
2013-08-21 22:50:00,68.6,67.1,30.08,East,95,0.0,1.0,95,0.00,,---,0.00,VWS V14.01,2013-08-22 02:50:00,
2013-08-21 22:55:00,68.6,67.1,30.09,ESE,103,0.0,1.0,95,0.00,,---,0.00,VWS V14.01,2013-08-22 02:55:00,
2013-08-21 23:00:00,68.5,67.0,30.09,ESE,103,0.0,0.0,95,0.00,,---,0.00,VWS V14.01,2013-08-22 03:00:00,
2013-08-21 23:05:00,68.5,67.0,30.09,ESE,103,0.0,1.0,95,0.00,,---,0.00,VWS V14.01,2013-08-22 03:05:00,
2013-08-21 23:10:00,68.6,67.1,30.09,NW,305,0.0,0.0,95,0.00,,---,0.00,VWS V14.01,2013-08-22 03:10:00,
2013-08-21 23:15:00,68.6,67.1,30.09,SSW,207,0.0,0.0,95,0.00,,---,0.00,VWS V14.01,2013-08-22 03:15:00,
2013-08-21 23:20:00,68.6,67.1,30.09,South,189,0.0,0.0,95,0.00,,---,0.00,VWS V14.01,2013-08-22 03:20:00,
2013-08-21 23:25:00,68.6,67.1,30.09,South,188,0.0,0.0,95,0.00,,---,0.00,VWS V14.01,2013-08-22 03:25:00,
2013-08-21 23:30:00,68.7,67.2,30.09,WNW,283,0.0,2.0,95,0.00,,---,0.00,VWS V14.01,2013-08-22 03:30:00,
2013-08-21 23:35:00,68.7,67.2,30.09,WNW,284,1.0,2.0,95,0.00,,---,0.00,VWS V14.01,2013-08-22 03:35:00,
2013-08-21 23:40:00,68.8,67.3,30.08,WNW,283,4.0,4.0,95,0.00,,---,0.00,VWS V14.01,2013-08-22 03:40:00,
2013-08-21 23:45:00,68.8,67.3,30.08,West,266,2.0,4.0,95,0.00,,---,0.00,VWS V14.01,2013-08-22 03:45:00,
2013-08-21 23:50:00,68.9,67.4,30.08,WNW,287,2.0,3.0,95,0.00,,---,0.00,VWS V14.01,2013-08-22 03:50:00,
2013-08-21 23:55:00,68.8,67.3,30.08,WNW,290,2.0,4.0,95,0.00,,---,0.00,VWS V14.01,2013-08-22 03:55:00,